Time;durP1;ratioP1;P1;durP2;ratioP2;P2;SDS_P1;SDS_P2;PMS_P1;PMS_P2;Temp;Humidity;BMP_temperature;BMP_pressure;BME280_temperature;BME280_humidity;BME280_pressure;Samples;Min_cycle;Max_cycle;Signal;HPM_P1;HPM_P2
2021/04/03 00:02:10;;;;;;;;;;;4.80;99.90;;;;;;6977370;28;20372;-65
2021/04/03 00:05:31;;;;;;;;;;;4.60;99.90;;;;;;6984755;28;19920;-64
2021/04/03 00:08:52;;;;;;;;;;;4.70;99.90;;;;;;6974020;28;19920;-64
2021/04/03 00:12:13;;;;;;;;;;;4.60;99.90;;;;;;6983159;28;20051;-65
2021/04/03 00:15:34;;;;;;;;;;;4.50;99.90;;;;;;6981436;28;20359;-64
2021/04/03 00:18:55;;;;;;;;;;;4.40;99.90;;;;;;6977506;28;20277;-65
2021/04/03 00:22:15;;;;;;;;;;;4.40;99.90;;;;;;6975887;28;19919;-65
2021/04/03 00:25:36;;;;;;;;;;;4.40;99.90;;;;;;6984017;28;19932;-64
2021/04/03 00:28:57;;;;;;;;;;;4.40;99.90;;;;;;6969967;28;19966;-64
2021/04/03 00:32:17;;;;;;;;;;;4.40;99.90;;;;;;6976350;28;19923;-64
2021/04/03 00:35:40;;;;;;;;;;;4.30;99.90;;;;;;6974307;28;19912;-64
2021/04/03 00:39:01;;;;;;;;;;;4.20;99.90;;;;;;6980835;28;19920;-64
2021/04/03 00:42:21;;;;;;;;;;;4.10;99.90;;;;;;6980634;28;20042;-64
2021/04/03 00:45:43;;;;;;;;;;;4.20;99.90;;;;;;6983397;28;19912;-64
2021/04/03 00:49:05;;;;;;;;;;;4.20;99.90;;;;;;6965182;28;19935;-64
2021/04/03 00:52:27;;;;;;;;;;;4.20;99.90;;;;;;6965684;28;20525;-65
2021/04/03 00:55:49;;;;;;;;;;;4.10;99.90;;;;;;6980332;28;19912;-64
2021/04/03 00:59:12;;;;;;;;;;;4.10;99.90;;;;;;6977808;28;19921;-64
2021/04/03 01:02:36;;;;;;;;;;;4.10;99.90;;;;;;6958003;28;19913;-64
2021/04/03 01:05:58;;;;;;;;;;;4.10;99.90;;;;;;6979543;28;20066;-64
2021/04/03 01:09:21;;;;;;;;;;;4.10;99.90;;;;;;6977589;28;19959;-65
2021/04/03 01:13:16;;;;;;;;;;;4.20;99.90;;;;;;6985402;28;19920;-65
2021/04/03 01:17:02;;;;;;;;;;;4.30;99.90;;;;;;6919687;28;20039;-64
2021/04/03 01:20:37;;;;;;;;;;;4.20;99.90;;;;;;6989304;28;20007;-64
2021/04/03 01:24:10;;;;;;;;;;;4.20;99.90;;;;;;6987363;28;19962;-64
2021/04/03 01:27:31;;;;;;;;;;;4.20;99.90;;;;;;6976107;28;19995;-65
2021/04/03 01:30:53;;;;;;;;;;;4.20;99.90;;;;;;6983917;28;19913;-64
2021/04/03 01:34:18;;;;;;;;;;;4.10;99.90;;;;;;6989694;28;20330;-64
2021/04/03 01:37:48;;;;;;;;;;;4.10;99.90;;;;;;6974320;28;19962;-64
2021/04/03 01:41:09;;;;;;;;;;;4.00;99.90;;;;;;6968835;28;20283;-64
2021/04/03 01:44:38;;;;;;;;;;;3.90;99.90;;;;;;6959227;28;19923;-65
2021/04/03 01:47:59;;;;;;;;;;;3.90;99.90;;;;;;6982275;28;19913;-64
2021/04/03 01:51:21;;;;;;;;;;;3.90;99.90;;;;;;6965405;28;19913;-64
2021/04/03 01:54:44;;;;;;;;;;;3.80;99.90;;;;;;6970315;28;19913;-65
2021/04/03 01:58:05;;;;;;;;;;;3.80;99.90;;;;;;6970906;28;19913;-65
2021/04/03 02:01:30;;;;;;;;;;;3.70;99.90;;;;;;6963537;28;19917;-64
2021/04/03 02:04:53;;;;;;;;;;;3.50;99.90;;;;;;6978628;28;19913;-65
2021/04/03 02:08:16;;;;;;;;;;;3.50;99.90;;;;;;6966972;28;19958;-65
2021/04/03 02:11:44;;;;;;;;;;;3.50;99.90;;;;;;6956877;28;19920;-64
2021/04/03 02:15:26;;;;;;;;;;;3.50;99.90;;;;;;6971553;28;19917;-65
2021/04/03 02:18:51;;;;;;;;;;;3.30;99.90;;;;;;6982245;28;19943;-64
2021/04/03 02:22:17;;;;;;;;;;;3.30;99.90;;;;;;6977935;28;19920;-64
2021/04/03 02:25:41;;;;;;;;;;;3.40;99.90;;;;;;6981619;28;19924;-65
2021/04/03 02:29:10;;;;;;;;;;;3.30;99.90;;;;;;6988139;28;20287;-65
2021/04/03 02:32:31;;;;;;;;;;;3.40;99.90;;;;;;6980475;28;20362;-64
2021/04/03 02:35:53;;;;;;;;;;;3.30;99.90;;;;;;6978133;28;19912;-65
2021/04/03 02:39:15;;;;;;;;;;;3.30;99.90;;;;;;6959368;28;19917;-64
2021/04/03 02:42:38;;;;;;;;;;;3.20;99.90;;;;;;6979096;28;19998;-65
2021/04/03 02:46:14;;;;;;;;;;;3.20;99.90;;;;;;6981633;28;19994;-64
2021/04/03 02:49:41;;;;;;;;;;;3.10;99.90;;;;;;6975163;28;19912;-64
2021/04/03 02:53:03;;;;;;;;;;;3.10;99.90;;;;;;6982061;28;19917;-64
2021/04/03 02:56:24;;;;;;;;;;;3.10;99.90;;;;;;6978621;28;19920;-65
2021/04/03 02:59:53;;;;;;;;;;;3.10;99.90;;;;;;6977422;28;19973;-64
2021/04/03 03:03:14;;;;;;;;;;;2.90;99.90;;;;;;6966303;28;19919;-64
2021/04/03 03:06:36;;;;;;;;;;;2.90;99.90;;;;;;6968035;28;19923;-64
2021/04/03 03:10:02;;;;;;;;;;;2.90;99.90;;;;;;6978707;28;20278;-64
2021/04/03 03:13:24;;;;;;;;;;;2.90;99.90;;;;;;6986943;28;20003;-65
2021/04/03 03:16:47;;;;;;;;;;;2.80;99.90;;;;;;6963309;28;20342;-65
2021/04/03 03:20:08;;;;;;;;;;;2.90;99.90;;;;;;6978758;28;19921;-65
2021/04/03 03:23:29;;;;;;;;;;;3.00;99.90;;;;;;6961805;28;20433;-65
2021/04/03 03:26:51;;;;;;;;;;;2.90;99.90;;;;;;6974903;28;19913;-65
2021/04/03 03:30:16;;;;;;;;;;;2.80;99.90;;;;;;6976072;28;19913;-64
2021/04/03 03:33:39;;;;;;;;;;;2.90;99.90;;;;;;6978992;28;19939;-64
2021/04/03 03:37:01;;;;;;;;;;;2.70;99.90;;;;;;6964437;28;19913;-64
2021/04/03 03:40:30;;;;;;;;;;;2.70;99.90;;;;;;6969882;28;20391;-64
2021/04/03 03:43:52;;;;;;;;;;;2.70;99.90;;;;;;6958881;28;19919;-65
2021/04/03 03:47:13;;;;;;;;;;;2.60;99.90;;;;;;6979135;28;19917;-64
2021/04/03 03:50:37;;;;;;;;;;;2.50;99.90;;;;;;6980017;28;19913;-65
2021/04/03 03:54:00;;;;;;;;;;;2.50;99.90;;;;;;6961100;28;19920;-64
2021/04/03 03:57:22;;;;;;;;;;;2.40;99.90;;;;;;6991187;28;19920;-64
2021/04/03 04:00:43;;;;;;;;;;;2.40;99.90;;;;;;6980150;28;20403;-65
2021/04/03 04:04:08;;;;;;;;;;;2.40;99.90;;;;;;6969223;28;19912;-65
2021/04/03 04:07:34;;;;;;;;;;;2.30;99.90;;;;;;6967785;28;20341;-65
2021/04/03 04:10:55;;;;;;;;;;;2.30;99.90;;;;;;6966671;28;19941;-64
2021/04/03 04:14:17;;;;;;;;;;;2.30;99.90;;;;;;6985457;28;19920;-65
2021/04/03 04:17:44;;;;;;;;;;;2.30;99.90;;;;;;6964622;28;19913;-64
2021/04/03 04:21:07;;;;;;;;;;;2.20;99.90;;;;;;6966206;28;20424;-64
2021/04/03 04:24:31;;;;;;;;;;;2.30;99.90;;;;;;6972206;28;19913;-65
2021/04/03 04:27:53;;;;;;;;;;;2.20;99.90;;;;;;6965838;28;19923;-64
2021/04/03 04:31:14;;;;;;;;;;;2.20;99.90;;;;;;6982426;28;19984;-64
2021/04/03 04:34:44;;;;;;;;;;;2.10;99.90;;;;;;6958813;28;19917;-64
2021/04/03 04:38:05;;;;;;;;;;;2.20;99.90;;;;;;6974807;28;19985;-64
2021/04/03 04:41:32;;;;;;;;;;;2.10;99.90;;;;;;6962449;28;19921;-64
2021/04/03 04:44:54;;;;;;;;;;;2.10;99.90;;;;;;6985472;28;20333;-64
2021/04/03 04:48:16;;;;;;;;;;;2.00;99.90;;;;;;6952549;28;20007;-64
2021/04/03 04:51:41;;;;;;;;;;;2.00;99.90;;;;;;6984714;28;19963;-64
2021/04/03 04:55:12;;;;;;;;;;;1.90;99.90;;;;;;6976737;28;19962;-64
2021/04/03 04:58:35;;;;;;;;;;;1.90;99.90;;;;;;6980173;28;19967;-64
2021/04/03 05:01:57;;;;;;;;;;;1.80;99.90;;;;;;6969244;28;19912;-64
2021/04/03 05:05:18;;;;;;;;;;;1.80;99.90;;;;;;6982731;28;19912;-64
2021/04/03 05:08:39;;;;;;;;;;;1.70;99.90;;;;;;6966744;28;19996;-65
2021/04/03 05:12:01;;;;;;;;;;;1.80;99.90;;;;;;6965123;28;19920;-64
2021/04/03 05:15:21;;;;;;;;;;;1.90;99.90;;;;;;6970393;28;19913;-65
2021/04/03 05:18:43;;;;;;;;;;;2.00;99.90;;;;;;6966640;28;19923;-65
2021/04/03 05:22:04;;;;;;;;;;;2.00;99.90;;;;;;6965194;28;19913;-64
2021/04/03 05:25:25;;;;;;;;;;;2.10;99.90;;;;;;6964877;28;19912;-64
2021/04/03 05:28:46;;;;;;;;;;;2.10;99.90;;;;;;6956095;28;19972;-64
2021/04/03 05:32:06;;;;;;;;;;;2.10;99.90;;;;;;6948080;28;19917;-64
2021/04/03 05:35:28;;;;;;;;;;;2.20;99.90;;;;;;6959092;28;20288;-64
2021/04/03 05:38:48;;;;;;;;;;;2.20;99.90;;;;;;6966807;28;19917;-65
2021/04/03 05:42:13;;;;;;;;;;;2.20;99.90;;;;;;6971460;28;20402;-64
2021/04/03 05:45:38;;;;;;;;;;;2.30;99.90;;;;;;6969979;28;20264;-65
2021/04/03 05:48:59;;;;;;;;;;;2.40;99.90;;;;;;6976150;28;19919;-65
2021/04/03 05:52:19;;;;;;;;;;;2.60;99.90;;;;;;6979572;28;19917;-64
2021/04/03 05:55:40;;;;;;;;;;;2.60;99.90;;;;;;6979241;28;20431;-65
2021/04/03 05:59:01;;;;;;;;;;;2.80;99.90;;;;;;6976226;28;20003;-65
2021/04/03 06:02:23;;;;;;;;;;;2.90;99.90;;;;;;6978937;28;19920;-66
2021/04/03 06:05:43;;;;;;;;;;;3.10;99.90;;;;;;6983816;28;20380;-65
2021/04/03 06:09:04;;;;;;;;;;;3.30;99.90;;;;;;6986988;28;20011;-65
2021/04/03 06:12:44;;;;;;;;;;;3.50;99.90;;;;;;6988422;28;19913;-65
2021/04/03 06:16:23;;;;;;;;;;;3.60;99.90;;;;;;6971833;28;19948;-65
2021/04/03 06:19:48;;;;;;;;;;;3.70;99.90;;;;;;6954422;28;19920;-65
2021/04/03 06:23:09;;;;;;;;;;;3.80;99.90;;;;;;6986051;28;20000;-66
2021/04/03 06:26:30;;;;;;;;;;;3.90;99.90;;;;;;6987019;28;19939;-64
2021/04/03 06:29:51;;;;;;;;;;;4.00;99.90;;;;;;6978154;28;19920;-64
2021/04/03 06:33:12;;;;;;;;;;;4.10;99.90;;;;;;6964008;28;20003;-64
2021/04/03 06:36:33;;;;;;;;;;;4.30;99.90;;;;;;6977787;28;19919;-66
2021/04/03 06:39:55;;;;;;;;;;;4.30;99.90;;;;;;6973118;28;19921;-65
2021/04/03 06:43:17;;;;;;;;;;;4.30;99.90;;;;;;6965594;28;20295;-65
2021/04/03 06:46:39;;;;;;;;;;;4.40;99.90;;;;;;6967178;28;20395;-67
2021/04/03 06:49:59;;;;;;;;;;;4.40;99.90;;;;;;6956753;28;20366;-65
2021/04/03 06:53:20;;;;;;;;;;;4.60;99.90;;;;;;6965041;28;19916;-65
2021/04/03 06:56:41;;;;;;;;;;;4.80;99.90;;;;;;6979891;28;19958;-64
2021/04/03 07:00:03;;;;;;;;;;;4.90;99.90;;;;;;6977985;28;19958;-64
2021/04/03 07:03:24;;;;;;;;;;;5.10;99.90;;;;;;6974978;28;19920;-64
2021/04/03 07:06:47;;;;;;;;;;;5.40;99.90;;;;;;6970850;28;20330;-64
2021/04/03 07:10:07;;;;;;;;;;;5.60;99.90;;;;;;6971158;28;20398;-63
2021/04/03 07:13:29;;;;;;;;;;;5.80;99.90;;;;;;6977327;28;19913;-65
2021/04/03 07:16:50;;;;;;;;;;;5.90;99.90;;;;;;6969307;28;19921;-64
2021/04/03 07:20:13;;;;;;;;;;;6.10;99.90;;;;;;6972399;28;19923;-64
2021/04/03 07:23:35;;;;;;;;;;;6.40;99.90;;;;;;6969995;28;19913;-65
2021/04/03 07:26:56;;;;;;;;;;;6.60;99.90;;;;;;6974683;28;19917;-64
2021/04/03 07:30:32;;;;;;;;;;;6.70;99.90;;;;;;6969326;28;19923;-64
2021/04/03 07:33:52;;;;;;;;;;;6.90;99.90;;;;;;6960147;28;19928;-65
2021/04/03 07:37:21;;;;;;;;;;;7.20;99.90;;;;;;6967705;28;19917;-65
2021/04/03 07:40:43;;;;;;;;;;;7.40;99.90;;;;;;6972437;28;19960;-65
2021/04/03 07:44:13;;;;;;;;;;;7.70;99.90;;;;;;6981546;28;20380;-66
2021/04/03 07:47:47;;;;;;;;;;;7.80;99.90;;;;;;6971021;28;20425;-64
2021/04/03 07:51:10;;;;;;;;;;;8.00;99.90;;;;;;6973606;28;19920;-65
2021/04/03 07:54:31;;;;;;;;;;;8.20;99.90;;;;;;6978312;28;20329;-64
2021/04/03 07:57:52;;;;;;;;;;;8.40;99.90;;;;;;6973468;28;19916;-65
2021/04/03 08:01:13;;;;;;;;;;;8.60;99.90;;;;;;6984458;28;19923;-65
2021/04/03 08:04:34;;;;;;;;;;;8.80;99.90;;;;;;6985166;28;19958;-64
2021/04/03 08:07:55;;;;;;;;;;;9.10;99.90;;;;;;6982913;28;20388;-64
2021/04/03 08:11:17;;;;;;;;;;;9.40;99.90;;;;;;6974759;28;20011;-64
2021/04/03 08:14:38;;;;;;;;;;;9.50;99.90;;;;;;6982912;28;19928;-65
2021/04/03 08:17:59;;;;;;;;;;;9.60;99.90;;;;;;6974429;28;19936;-64
2021/04/03 08:21:20;;;;;;;;;;;9.70;99.90;;;;;;6984462;28;20390;-64
2021/04/03 08:24:53;;;;;;;;;;;9.80;99.90;;;;;;6982201;28;19948;-64
